Gallup Municipal Airport
KGUP : rendu visible

Aérodrome :











RETROUVEZ-NOUS SUR...

 
LOGIN :

S'inscrire | Disclaimer

   EN    FR    IT 

 









Légende :    VFR   VFR Marginal   IFR   IFR Intensif   IFR Très Intensif
Visi : 
Plafond : 
>= 8 km
>= 3000ft
5 à 8 km
1000 à 3000 ft
1500m à 5 km
500 à 1000 ft
800 à 1500m
200 à 500 ft
< 800m
< 200 ft
Symboles :   Orages  Brouillard  Fortes neiges  Fortes précipitations  Vent > 20 kt






- Altitude de l'aérodrome : 6472 ft
- Code IATA : GUP


KGUP - Gallup Municipal

DERNIER METAR :
  • 211553Z AUTO 00000KT 10SM CLR 03/01 A2993 RMK AO2 SLP103 T00280006

METARs EXPIRÉS :
  • 211453Z AUTO VRB04KT 10SM FEW080 BKN100 02/00 A2993 RMK AO2 SLP106 T00170000 50010
  • 211353Z AUTO 16005KT 10SM FEW080 OVC100 01/M01 A2994 RMK AO2 SLP110 T00111006

TAF KGUP
Valide du 21 à 12h jusqu'au 22 à 12h UTC


211138Z 2112/2212 19005KT P6SM BKN019 OVC070
FM211400 20006KT P6SM BKN040 BKN070
FM212000 22010KT P6SM -SHRASN OVC040
FM220200 22008KT 5SM -SHSN BR OVC025



MET'MAP, la Météo Aéronautique d'un coup d'oeil ! - Copyright ORBIFLY Décembre 2007 - Disclaimer

ORBIFLY MET'MAP TEAM :

Programmation & Développement : Alexandra Zaïnal
Conception & Développement : Baudouin d'Aumeries
Co-Programmation & Développement : Marc-Olivier Méhu
Soutien technique & logistique : Manuel Goepfert

Contact : metmap@orbifly.com




SOURCES & CREDITS :

   NOAA       Earth
Advisory